KCVO - Corvallis, OR
Updated: Wed, 22-Mar-2017 8:55pm PDT

 Wind from SW
Wind: SW 6 mph , 9 km/h
Temperature: 46°F , 8°C
Wind Chill: 43°F , 6°C
Dew Point: 39°F , 4°C
Humidity: 76%
Barometer: 30.12 inHg , 1020 hPa
2017/03/23 03:55 KCVO 230355Z 22005KT 08/04 A3012 RMK AO1